createdAt,value
2023-03-17T00:00:46.837Z,20.95
2023-03-17T00:05:49.857Z,20.93
2023-03-17T00:10:52.643Z,20.89
2023-03-17T00:15:58.056Z,20.85
2023-03-17T00:21:01.055Z,20.80
2023-03-17T00:26:03.830Z,20.77
2023-03-17T00:31:13.631Z,20.72
2023-03-17T00:36:17.926Z,20.64
2023-03-17T00:41:20.874Z,20.57
2023-03-17T00:46:26.699Z,20.52
2023-03-17T00:51:29.746Z,20.48
2023-03-17T00:56:33.165Z,20.38
2023-03-17T01:01:37.411Z,20.31
2023-03-17T01:06:40.159Z,20.26
2023-03-17T01:11:44.316Z,20.18
2023-03-17T01:16:48.746Z,20.11
2023-03-17T01:21:52.171Z,20.07
2023-03-17T01:26:54.921Z,19.98
2023-03-17T01:31:59.148Z,19.94
2023-03-17T01:37:01.938Z,19.88
2023-03-17T01:42:05.737Z,19.81
2023-03-17T01:47:10.051Z,19.79
2023-03-17T01:52:14.219Z,19.76
2023-03-17T01:57:18.287Z,19.72
2023-03-17T02:02:24.833Z,19.66
2023-03-17T02:07:28.395Z,19.63
2023-03-17T02:12:31.316Z,19.58
2023-03-17T02:17:35.604Z,19.59
2023-03-17T02:22:39.710Z,19.54
2023-03-17T02:27:43.980Z,19.53
2023-03-17T02:32:47.285Z,19.50
2023-03-17T02:37:51.402Z,19.47
2023-03-17T02:42:54.251Z,19.42
2023-03-17T02:47:57.414Z,19.35
2023-03-17T02:53:01.520Z,19.42
2023-03-17T02:58:04.390Z,19.38
2023-03-17T03:03:07.206Z,19.37
2023-03-17T03:08:12.204Z,19.34
2023-03-17T03:13:14.978Z,19.35
2023-03-17T03:18:17.749Z,19.31
2023-03-17T03:23:21.979Z,19.29
2023-03-17T03:28:24.794Z,19.27
2023-03-17T03:33:28.412Z,19.25
2023-03-17T03:38:32.656Z,19.26
2023-03-17T03:43:35.750Z,19.25
2023-03-17T03:48:38.514Z,19.22
2023-03-17T03:53:42.644Z,19.22
2023-03-17T03:58:45.361Z,19.18
2023-03-17T04:03:48.496Z,19.20
2023-03-17T04:08:52.602Z,19.22
2023-03-17T04:13:55.580Z,19.19
2023-03-17T04:18:58.645Z,19.17
2023-03-17T04:24:02.787Z,19.19
2023-03-17T04:29:07.981Z,19.14
2023-03-17T04:34:14.340Z,19.21
2023-03-17T04:39:18.994Z,19.18
2023-03-17T04:44:21.749Z,19.12
2023-03-17T04:49:24.529Z,19.12
2023-03-17T04:54:28.636Z,19.15
2023-03-17T04:59:31.394Z,19.11
2023-03-17T05:04:34.276Z,19.08
2023-03-17T05:09:38.825Z,19.02
2023-03-17T05:14:41.554Z,19.01
2023-03-17T05:19:44.544Z,19.02
2023-03-17T05:24:48.714Z,19.01
2023-03-17T05:29:51.586Z,18.97
2023-03-17T05:34:54.397Z,18.97
2023-03-17T05:39:59.414Z,18.97
2023-03-17T05:45:02.188Z,18.95
2023-03-17T05:50:05.816Z,18.94
2023-03-17T05:55:11.585Z,18.95
2023-03-17T06:00:16.148Z,18.94
2023-03-17T06:05:19.116Z,18.92
2023-03-17T06:10:23.259Z,18.92
2023-03-17T06:15:26.219Z,18.93
2023-03-17T06:20:29.049Z,18.96
2023-03-17T06:25:33.925Z,18.95
2023-03-17T06:30:40.076Z,18.96
2023-03-17T06:35:43.581Z,18.98
2023-03-17T06:40:47.963Z,19.00
2023-03-17T06:45:51.574Z,18.99
2023-03-17T06:50:54.474Z,18.99
2023-03-17T06:55:58.669Z,18.99
2023-03-17T07:01:01.454Z,19.02
2023-03-17T07:06:04.265Z,19.02
2023-03-17T07:11:09.319Z,19.04
2023-03-17T07:16:12.514Z,19.02
2023-03-17T07:21:15.666Z,19.06
2023-03-17T07:26:19.809Z,19.06
2023-03-17T07:31:23.341Z,19.06
2023-03-17T07:36:26.326Z,19.10
2023-03-17T07:41:30.511Z,19.11
2023-03-17T07:46:33.883Z,19.14
2023-03-17T07:51:36.687Z,19.12
2023-03-17T07:56:41.057Z,19.11
2023-03-17T08:01:43.853Z,19.11
2023-03-17T08:06:47.664Z,19.05
2023-03-17T08:11:51.873Z,19.05
2023-03-17T08:16:55.659Z,19.08
2023-03-17T08:21:58.585Z,19.20
2023-03-17T08:27:02.828Z,19.24
2023-03-17T08:32:06.014Z,19.30
2023-03-17T08:37:11.418Z,19.36
2023-03-17T08:42:15.890Z,19.46
2023-03-17T08:47:18.871Z,19.48
2023-03-17T08:52:21.680Z,19.56
2023-03-17T08:57:25.860Z,19.60
2023-03-17T09:02:28.778Z,19.61
2023-03-17T09:07:31.651Z,19.63
2023-03-17T09:12:35.966Z,19.64
2023-03-17T09:17:39.961Z,19.65
2023-03-17T09:22:42.812Z,19.63
2023-03-17T09:27:48.633Z,19.67
2023-03-17T09:32:51.555Z,19.67
2023-03-17T09:37:54.586Z,19.67
2023-03-17T09:43:06.111Z,19.71
2023-03-17T09:48:27.268Z,19.66
2023-03-17T09:53:34.220Z,19.72
2023-03-17T09:58:38.393Z,19.73
2023-03-17T10:03:41.185Z,19.69
2023-03-17T10:08:47.755Z,19.69
2023-03-17T10:13:54.838Z,19.72
2023-03-17T10:18:59.771Z,19.72
2023-03-17T10:24:02.929Z,19.74
2023-03-17T10:29:10.701Z,19.79
2023-03-17T10:34:14.823Z,19.83
2023-03-17T10:39:19.571Z,19.89
2023-03-17T10:44:39.398Z,19.93
2023-03-17T10:49:44.787Z,20.01
2023-03-17T10:54:48.580Z,20.10
2023-03-17T10:59:59.132Z,20.17
2023-03-17T11:05:04.371Z,20.25
2023-03-17T11:10:17.051Z,19.87
2023-03-17T11:15:21.343Z,20.09
2023-03-17T11:20:39.485Z,20.19
2023-03-17T11:25:43.267Z,20.25
2023-03-17T11:30:53.811Z,20.29
2023-03-17T11:35:57.821Z,20.39
2023-03-17T11:41:13.395Z,20.42
2023-03-17T11:46:20.251Z,20.43
2023-03-17T11:51:27.634Z,20.46
2023-03-17T11:56:38.256Z,20.50
2023-03-17T12:01:48.569Z,20.57
2023-03-17T12:06:54.924Z,20.57
2023-03-17T12:11:58.387Z,20.29
2023-03-17T12:17:09.405Z,20.13
2023-03-17T12:22:17.819Z,19.96
2023-03-17T12:27:22.965Z,19.86
2023-03-17T12:32:29.465Z,19.88
2023-03-17T12:37:33.074Z,19.69
2023-03-17T12:42:39.160Z,19.88
2023-03-17T12:47:58.394Z,19.96
2023-03-17T12:53:29.611Z,20.03
2023-03-17T12:58:34.528Z,20.15
2023-03-17T13:03:39.156Z,20.27
2023-03-17T13:08:42.961Z,20.35
2023-03-17T13:14:08.457Z,20.42
2023-03-17T13:19:21.451Z,20.49
2023-03-17T13:24:40.532Z,20.56
2023-03-17T13:29:47.309Z,20.57
2023-03-17T13:34:52.779Z,20.61
2023-03-17T13:40:10.692Z,20.65
2023-03-17T13:45:33.421Z,20.67
2023-03-17T13:50:39.967Z,20.63
2023-03-17T13:55:43.150Z,20.67
2023-03-17T14:00:47.526Z,20.71
2023-03-17T14:05:52.616Z,20.64
2023-03-17T14:10:56.011Z,20.58
2023-03-17T14:16:04.040Z,20.56
2023-03-17T14:21:11.661Z,20.54
2023-03-17T14:26:14.814Z,20.60
2023-03-17T14:31:22.560Z,20.59
2023-03-17T14:36:26.981Z,20.60
2023-03-17T14:41:31.768Z,20.59
2023-03-17T14:46:37.086Z,20.58
2023-03-17T14:51:41.913Z,20.59
2023-03-17T14:56:46.951Z,20.54
2023-03-17T15:01:53.763Z,20.52
2023-03-17T15:06:58.599Z,20.57
2023-03-17T15:12:04.563Z,20.63
2023-03-17T15:17:08.363Z,20.65
2023-03-17T15:22:25.091Z,20.70
2023-03-17T15:27:28.407Z,20.76
2023-03-17T15:32:32.214Z,20.79
2023-03-17T15:37:36.405Z,20.80
2023-03-17T15:42:39.850Z,20.77
2023-03-17T15:47:42.642Z,20.81
2023-03-17T15:52:46.798Z,20.85
2023-03-17T15:57:56.688Z,20.88
2023-03-17T16:03:02.040Z,20.89
2023-03-17T16:08:06.825Z,20.90
2023-03-17T16:13:09.671Z,20.90
2023-03-17T16:18:16.762Z,20.91
2023-03-17T16:23:22.185Z,20.94
2023-03-17T16:28:25.890Z,20.93
2023-03-17T16:33:31.001Z,20.96
2023-03-17T16:38:35.268Z,20.95
2023-03-17T16:43:38.283Z,20.97
2023-03-17T16:48:41.017Z,20.98
2023-03-17T16:53:45.344Z,21.01
2023-03-17T16:58:48.369Z,21.05
2023-03-17T17:03:51.342Z,21.05
2023-03-17T17:08:55.527Z,21.06
2023-03-17T17:13:59.752Z,21.08
2023-03-17T17:19:02.797Z,21.06
2023-03-17T17:24:07.390Z,21.08
2023-03-17T17:29:10.449Z,21.10
2023-03-17T17:34:13.268Z,21.14
2023-03-17T17:39:17.812Z,21.16
2023-03-17T17:44:20.596Z,21.15
2023-03-17T17:49:24.414Z,21.19
2023-03-17T17:54:28.693Z,21.18
2023-03-17T17:59:31.626Z,21.20
2023-03-17T18:04:34.509Z,21.22
2023-03-17T18:09:38.791Z,21.23
2023-03-17T18:14:41.524Z,21.24
2023-03-17T18:19:44.294Z,21.26
2023-03-17T18:24:49.375Z,21.30
2023-03-17T18:29:52.123Z,21.31
2023-03-17T18:34:55.207Z,21.32
2023-03-17T18:40:13.311Z,21.33
2023-03-17T18:45:18.214Z,21.34
2023-03-17T18:50:22.287Z,21.33
2023-03-17T18:55:26.396Z,21.35
2023-03-17T19:00:29.792Z,21.33
2023-03-17T19:05:33.141Z,21.36
2023-03-17T19:10:37.272Z,21.39
2023-03-17T19:15:40.393Z,21.38
2023-03-17T19:20:43.638Z,21.38
2023-03-17T19:25:47.798Z,21.40
2023-03-17T19:30:50.704Z,21.41
2023-03-17T19:35:54.841Z,21.41
2023-03-17T19:40:58.996Z,21.44
2023-03-17T19:46:02.014Z,21.48
2023-03-17T19:51:05.592Z,21.43
2023-03-17T19:56:10.997Z,21.43
2023-03-17T20:01:14.353Z,21.46
2023-03-17T20:06:17.178Z,21.46
2023-03-17T20:11:21.619Z,21.48
2023-03-17T20:16:24.487Z,21.49
2023-03-17T20:21:27.414Z,21.49
2023-03-17T20:26:31.572Z,21.49
2023-03-17T20:31:34.448Z,21.50
2023-03-17T20:36:37.461Z,21.51
2023-03-17T20:41:41.990Z,21.47
2023-03-17T20:46:44.907Z,21.51
2023-03-17T20:51:47.819Z,21.54
2023-03-17T20:56:55.902Z,21.54
2023-03-17T21:01:59.901Z,21.52
2023-03-17T21:07:03.254Z,21.53
2023-03-17T21:12:07.511Z,21.54
2023-03-17T21:17:10.323Z,21.53
2023-03-17T21:22:13.727Z,21.50
2023-03-17T21:27:18.304Z,21.57
2023-03-17T21:32:21.137Z,21.56
2023-03-17T21:37:23.939Z,21.58
2023-03-17T21:42:28.318Z,21.57
2023-03-17T21:47:31.262Z,21.56
2023-03-17T21:52:34.259Z,21.56
2023-03-17T21:57:38.631Z,21.59
2023-03-17T22:02:41.637Z,21.57
2023-03-17T22:07:44.668Z,21.58
2023-03-17T22:12:48.937Z,21.57
2023-03-17T22:17:53.117Z,21.53
2023-03-17T22:22:56.271Z,21.52
2023-03-17T22:28:00.377Z,21.52
2023-03-17T22:33:03.258Z,21.47
2023-03-17T22:38:06.091Z,21.47
2023-03-17T22:43:10.478Z,21.41
2023-03-17T22:48:13.390Z,21.41
2023-03-17T22:53:16.416Z,21.41
2023-03-17T22:58:20.572Z,21.39
2023-03-17T23:03:23.700Z,21.35
2023-03-17T23:08:27.046Z,21.31
2023-03-17T23:13:31.359Z,21.33
2023-03-17T23:18:34.083Z,21.31
2023-03-17T23:23:38.022Z,21.29
2023-03-17T23:28:44.250Z,21.27
2023-03-17T23:33:47.252Z,21.24
2023-03-17T23:38:52.024Z,21.23
2023-03-17T23:43:56.644Z,21.21
2023-03-17T23:48:59.390Z,21.19
2023-03-17T23:54:02.125Z,21.19
2023-03-17T23:59:07.512Z,21.17
